Time;durP1;ratioP1;P1;durP2;ratioP2;P2;SDS_P1;SDS_P2;PMS_P1;PMS_P2;Temp;Humidity;BMP_temperature;BMP_pressure;BME280_temperature;BME280_humidity;BME280_pressure;Samples;Min_cycle;Max_cycle;Signal;HPM_P1;HPM_P2
2024/02/16 00:01:44;;;;;;;;;;;;;;;-144.99;100.00;52586.69;5059255;28;20019;-70
2024/02/16 00:04:11;;;;;;;;;;;;;;;-144.99;100.00;52550.00;5054834;28;19951;-70
2024/02/16 00:06:37;;;;;;;;;;;;;;;-144.99;100.00;52588.75;5045172;28;19933;-69
2024/02/16 00:09:04;;;;;;;;;;;;;;;-144.99;100.00;52598.94;5054262;28;19931;-70
2024/02/16 00:11:32;;;;;;;;;;;;;;;-144.99;100.00;52570.38;5052315;28;19928;-70
2024/02/16 00:13:58;;;;;;;;;;;;;;;-144.99;100.00;52603.00;5055237;28;19960;-70
2024/02/16 00:16:24;;;;;;;;;;;;;;;-144.99;100.00;52590.78;5053864;28;20376;-70
2024/02/16 00:18:51;;;;;;;;;;;;;;;-144.99;100.00;52566.31;5046059;28;20015;-70
2024/02/16 00:21:17;;;;;;;;;;;;;;;-144.99;100.00;52615.25;5058748;28;19964;-69
2024/02/16 00:23:44;;;;;;;;;;;;;;;-144.99;100.00;52541.84;5052349;28;20716;-69
2024/02/16 00:26:10;;;;;;;;;;;;;;;-144.99;100.00;52566.31;5051634;28;19935;-70
2024/02/16 00:28:38;;;;;;;;;;;;;;;-144.99;100.00;52537.78;5050571;28;20055;-70
2024/02/16 00:31:05;;;;;;;;;;;;;;;-144.99;100.00;52554.09;5050002;28;20446;-71
2024/02/16 00:33:32;;;;;;;;;;;;;;;-144.99;100.00;52596.88;5053061;28;19928;-71
2024/02/16 00:35:58;;;;;;;;;;;;;;;-144.99;100.00;52590.78;5052012;28;20023;-68
2024/02/16 00:38:24;;;;;;;;;;;;;;;-144.99;100.00;52574.47;5052045;28;19967;-70
2024/02/16 00:40:51;;;;;;;;;;;;;;;-144.99;100.00;52582.63;5048552;28;20011;-69
2024/02/16 00:43:17;;;;;;;;;;;;;;;-144.99;100.00;52607.09;5061866;28;20035;-70
2024/02/16 00:45:45;;;;;;;;;;;;;;;-144.99;100.00;52619.31;5053186;28;19925;-70
2024/02/16 00:48:12;;;;;;;;;;;;;;;-144.99;100.00;52545.94;5051891;28;20003;-70
2024/02/16 00:50:38;;;;;;;;;;;;;;;-144.99;100.00;52607.09;5062049;28;20019;-70
2024/02/16 00:53:05;;;;;;;;;;;;;;;-144.99;100.00;52590.78;5058823;28;20011;-70
2024/02/16 00:55:31;;;;;;;;;;;;;;;-144.99;100.00;52598.94;5047211;28;19955;-69
2024/02/16 00:57:58;;;;;;;;;;;;;;;-144.99;100.00;52623.38;5054153;28;19929;-70
2024/02/16 01:00:24;;;;;;;;;;;;;;;-144.99;100.00;52562.25;5060992;28;20031;-71
2024/02/16 01:02:52;;;;;;;;;;;;;;;-144.99;100.00;52623.38;5056308;28;19968;-70
2024/02/16 01:05:19;;;;;;;;;;;;;;;-144.99;100.00;52592.81;5057020;28;19931;-68
2024/02/16 01:07:46;;;;;;;;;;;;;;;-144.99;100.00;52621.34;5054873;28;19932;-69
2024/02/16 01:10:13;;;;;;;;;;;;;;;-144.99;100.00;52578.53;5056300;28;19924;-70
2024/02/16 01:12:39;;;;;;;;;;;;;;;-144.99;100.00;52578.53;5057122;28;20415;-70
2024/02/16 01:15:06;;;;;;;;;;;;;;;-144.99;100.00;52556.13;5056102;28;20006;-72
2024/02/16 01:17:33;;;;;;;;;;;;;;;-144.99;100.00;52619.31;5048456;28;19959;-69
2024/02/16 01:20:01;;;;;;;;;;;;;;;-144.99;100.00;52578.53;5054698;28;19929;-70
2024/02/16 01:22:29;;;;;;;;;;;;;;;-144.99;100.00;52586.69;5064249;28;19935;-69
2024/02/16 01:24:55;;;;;;;;;;;;;;;-144.99;100.00;52582.63;5056332;28;20082;-70
2024/02/16 01:27:22;;;;;;;;;;;;;;;-144.99;100.00;52592.81;5054362;28;20011;-68
2024/02/16 01:29:48;;;;;;;;;;;;;;;-144.99;100.00;52556.13;5037258;28;19925;-69
2024/02/16 01:32:15;;;;;;;;;;;;;;;-144.99;100.00;52582.63;5057077;28;19925;-69
2024/02/16 01:34:43;;;;;;;;;;;;;;;-144.99;100.00;52578.53;5054267;28;20011;-70
2024/02/16 01:37:11;;;;;;;;;;;;;;;-144.99;100.00;52603.00;5056944;28;19924;-70
2024/02/16 01:39:38;;;;;;;;;;;;;;;-144.99;100.00;52600.97;5046501;28;20395;-70
2024/02/16 01:42:04;;;;;;;;;;;;;;;-144.99;100.00;52590.78;5055159;28;19929;-70
2024/02/16 01:44:31;;;;;;;;;;;;;;;-144.99;100.00;52586.69;5056442;28;20015;-69
2024/02/16 01:46:57;;;;;;;;;;;;;;;-144.99;100.00;52613.19;5057360;28;19967;-70
2024/02/16 01:49:23;;;;;;;;;;;;;;;-144.99;100.00;52550.00;5048605;28;20011;-69
2024/02/16 01:51:50;;;;;;;;;;;;;;;-144.99;100.00;52523.50;5059956;28;19975;-69
2024/02/16 01:54:18;;;;;;;;;;;;;;;-144.99;100.00;52598.94;5054541;28;20476;-70
2024/02/16 01:56:45;;;;;;;;;;;;;;;-144.99;100.00;52558.16;5061703;28;20388;-71
2024/02/16 01:59:11;;;;;;;;;;;;;;;-144.99;100.00;52578.53;5056461;28;19959;-70
2024/02/16 02:01:38;;;;;;;;;;;;;;;-144.99;100.00;52566.31;5063000;28;20349;-70
2024/02/16 02:04:05;;;;;;;;;;;;;;;-144.99;100.00;52550.00;5059833;28;19971;-71
2024/02/16 02:06:32;;;;;;;;;;;;;;;-144.99;100.00;52603.00;5056687;28;20142;-69
2024/02/16 02:08:58;;;;;;;;;;;;;;;-144.99;100.00;52582.63;5061044;28;20015;-70
2024/02/16 02:11:27;;;;;;;;;;;;;;;-144.99;100.00;52623.38;5052659;28;20021;-71
2024/02/16 02:13:53;;;;;;;;;;;;;;;-144.99;100.00;52594.84;5056822;28;19924;-68
2024/02/16 02:16:20;;;;;;;;;;;;;;;-144.99;100.00;52594.84;5058133;28;19924;-68
2024/02/16 02:18:46;;;;;;;;;;;;;;;-144.99;100.00;52558.16;5053325;28;19979;-69
2024/02/16 02:21:14;;;;;;;;;;;;;;;-144.99;100.00;52545.94;5050404;28;19925;-68
2024/02/16 02:23:42;;;;;;;;;;;;;;;-144.99;100.00;52594.84;5053870;28;20323;-69
2024/02/16 02:26:08;;;;;;;;;;;;;;;-144.99;100.00;52594.84;5054111;28;20035;-68
2024/02/16 02:28:34;;;;;;;;;;;;;;;-144.99;100.00;52578.53;5048923;28;19929;-68
2024/02/16 02:31:01;;;;;;;;;;;;;;;-144.99;100.00;52541.84;5051875;28;19972;-68
2024/02/16 02:33:27;;;;;;;;;;;;;;;-144.99;100.00;52586.69;5056142;28;19999;-68
2024/02/16 02:35:54;;;;;;;;;;;;;;;-144.99;100.00;52607.09;5052482;28;19976;-68
2024/02/16 02:38:19;;;;;;;;;;;;;;;-144.99;100.00;52572.44;5052160;28;19940;-68
2024/02/16 02:40:47;;;;;;;;;;;;;;;-144.99;100.00;52576.50;5050231;28;20019;-69
2024/02/16 02:43:13;;;;;;;;;;;;;;;-144.99;100.00;52580.59;5065742;28;19924;-68
2024/02/16 02:45:40;;;;;;;;;;;;;;;-144.99;100.00;52558.16;5054270;28;19964;-68
2024/02/16 02:48:07;;;;;;;;;;;;;;;-144.99;100.00;52582.63;5051915;28;19933;-69
2024/02/16 02:50:33;;;;;;;;;;;;;;;-144.99;100.00;52609.13;5049004;28;19925;-68
2024/02/16 02:53:00;;;;;;;;;;;;;;;-144.99;100.00;52603.00;5054952;28;20365;-70
2024/02/16 02:55:26;;;;;;;;;;;;;;;-144.99;100.00;52574.47;5056967;28;20369;-69
2024/02/16 02:57:54;;;;;;;;;;;;;;;-144.99;100.00;52574.47;5051673;28;19931;-69
2024/02/16 03:00:21;;;;;;;;;;;;;;;-144.99;100.00;52562.25;5049858;28;19933;-68
2024/02/16 03:02:48;;;;;;;;;;;;;;;-144.99;100.00;52554.09;5054904;28;20074;-69
2024/02/16 03:05:14;;;;;;;;;;;;;;;-144.99;100.00;52594.84;5061162;28;20517;-69
2024/02/16 03:07:41;;;;;;;;;;;;;;;-144.99;100.00;52627.47;5052477;28;19968;-69
2024/02/16 03:10:09;;;;;;;;;;;;;;;-144.99;100.00;52603.00;5053372;28;20011;-68
2024/02/16 03:12:35;;;;;;;;;;;;;;;-144.99;100.00;52631.53;5053061;28;19938;-68
2024/02/16 03:15:04;;;;;;;;;;;;;;;-144.99;100.00;52590.78;5052403;28;20012;-67
2024/02/16 03:17:30;;;;;;;;;;;;;;;-144.99;100.00;52554.09;5058058;28;19929;-68
2024/02/16 03:19:56;;;;;;;;;;;;;;;-144.99;100.00;52603.00;5051857;28;20399;-70
2024/02/16 03:22:23;;;;;;;;;;;;;;;-144.99;100.00;52578.53;5050863;28;20015;-69
2024/02/16 03:24:49;;;;;;;;;;;;;;;-144.99;100.00;52570.38;5051619;28;20149;-70
2024/02/16 03:27:16;;;;;;;;;;;;;;;-144.99;100.00;52603.00;5051566;28;20023;-71
2024/02/16 03:29:41;;;;;;;;;;;;;;;-144.99;100.00;52598.94;5049863;28;19929;-71
2024/02/16 03:32:09;;;;;;;;;;;;;;;-144.99;100.00;52582.63;5053148;28;19978;-72
2024/02/16 03:34:35;;;;;;;;;;;;;;;-144.99;100.00;52566.31;5058821;28;20021;-71
2024/02/16 03:37:02;;;;;;;;;;;;;;;-144.99;100.00;52574.47;5055427;28;20007;-71
2024/02/16 03:39:28;;;;;;;;;;;;;;;-144.99;100.00;52598.94;5050786;28;19995;-70
2024/02/16 03:41:54;;;;;;;;;;;;;;;-144.99;100.00;52570.38;5050088;28;19939;-71
2024/02/16 03:44:21;;;;;;;;;;;;;;;-144.99;100.00;52562.25;5048716;28;19998;-69
2024/02/16 03:46:47;;;;;;;;;;;;;;;-144.99;100.00;52594.84;5057635;28;19951;-71
2024/02/16 03:49:15;;;;;;;;;;;;;;;-144.99;100.00;52590.78;5053624;28;20027;-69
2024/02/16 03:51:42;;;;;;;;;;;;;;;-144.99;100.00;52617.28;5057459;28;19925;-71
2024/02/16 03:54:08;;;;;;;;;;;;;;;-144.99;100.00;52586.69;5047776;28;20019;-70
2024/02/16 03:56:35;;;;;;;;;;;;;;;-144.99;100.00;52574.47;5058547;28;19970;-71
2024/02/16 03:59:03;;;;;;;;;;;;;;;-144.99;100.00;52550.00;5051482;28;19929;-71
2024/02/16 04:01:30;;;;;;;;;;;;;;;-144.99;100.00;52603.00;5062604;28;19933;-71
2024/02/16 04:03:56;;;;;;;;;;;;;;;-144.99;100.00;52623.38;5055110;28;19929;-70
2024/02/16 04:06:24;;;;;;;;;;;;;;;-144.99;100.00;52574.47;5047523;28;19929;-70
2024/02/16 04:08:51;;;;;;;;;;;;;;;-144.99;100.00;52623.38;5056451;28;19928;-69
2024/02/16 04:11:17;;;;;;;;;;;;;;;-144.99;100.00;52586.69;5056966;28;20368;-71
2024/02/16 04:13:44;;;;;;;;;;;;;;;-144.99;100.00;52572.44;5061407;28;20023;-69
2024/02/16 04:16:10;;;;;;;;;;;;;;;-144.99;100.00;52621.34;5053141;28;19962;-71
2024/02/16 04:18:36;;;;;;;;;;;;;;;-144.99;100.00;52566.31;5047000;28;20020;-72
2024/02/16 04:21:03;;;;;;;;;;;;;;;-144.99;100.00;52572.44;5062689;28;19967;-71
2024/02/16 04:23:31;;;;;;;;;;;;;;;-144.99;100.00;52584.66;5057118;28;20180;-70
2024/02/16 04:25:57;;;;;;;;;;;;;;;-144.99;100.00;52603.00;5054322;28;20091;-70
2024/02/16 04:28:24;;;;;;;;;;;;;;;-144.99;100.00;52598.94;5060164;28;20015;-70
2024/02/16 04:30:50;;;;;;;;;;;;;;;-144.99;100.00;52582.63;5055353;28;20418;-70
2024/02/16 04:33:17;;;;;;;;;;;;;;;-144.99;100.00;52603.00;5060124;28;19931;-68
2024/02/16 04:35:46;;;;;;;;;;;;;;;-144.99;100.00;52554.09;5063558;28;19987;-67
2024/02/16 04:38:12;;;;;;;;;;;;;;;-144.99;100.00;52594.84;5060391;28;19928;-69
2024/02/16 04:40:40;;;;;;;;;;;;;;;-144.99;100.00;52580.59;5052316;28;20161;-69
2024/02/16 04:43:07;;;;;;;;;;;;;;;-144.99;100.00;52605.03;5066258;28;19990;-69
2024/02/16 04:45:35;;;;;;;;;;;;;;;-144.99;100.00;52586.69;5058917;28;20457;-68
2024/02/16 04:48:03;;;;;;;;;;;;;;;-144.99;100.00;52566.31;5051153;28;19928;-67
2024/02/16 04:50:29;;;;;;;;;;;;;;;-144.99;100.00;52564.28;5059186;28;20388;-66
2024/02/16 04:52:56;;;;;;;;;;;;;;;-144.99;100.00;52586.69;5053715;28;20019;-67
2024/02/16 04:55:22;;;;;;;;;;;;;;;-144.99;100.00;52611.16;5059704;28;20089;-69
2024/02/16 04:57:51;;;;;;;;;;;;;;;-144.99;100.00;52586.69;5051869;28;19948;-70
2024/02/16 05:00:17;;;;;;;;;;;;;;;-144.99;100.00;52631.53;5068271;28;19924;-70
2024/02/16 05:02:44;;;;;;;;;;;;;;;-144.99;100.00;52598.94;5073697;28;19992;-69
2024/02/16 05:05:10;;;;;;;;;;;;;;;-144.99;100.00;52603.00;5066516;28;19968;-67
2024/02/16 05:07:37;;;;;;;;;;;;;;;-144.99;100.00;52600.97;5063331;28;19982;-68
2024/02/16 05:10:03;;;;;;;;;;;;;;;-144.99;100.00;52586.69;5068711;28;20000;-68
2024/02/16 05:12:30;;;;;;;;;;;;;;;-144.99;100.00;52578.53;5074990;28;19928;-67
2024/02/16 05:14:57;;;;;;;;;;;;;;;-144.99;100.00;52623.38;5075559;28;19943;-67
2024/02/16 05:17:24;;;;;;;;;;;;;;;-144.99;100.00;52609.13;5070954;28;20027;-67
2024/02/16 05:19:50;;;;;;;;;;;;;;;-144.99;100.00;52556.13;5060409;28;19951;-67
2024/02/16 05:22:18;;;;;;;;;;;;;;;-144.99;100.00;52586.69;5086926;28;19912;-67
2024/02/16 05:24:45;;;;;;;;;;;;;;;-144.99;100.00;52635.63;5087216;28;19924;-70
2024/02/16 05:27:11;;;;;;;;;;;;;;;-144.99;100.00;52566.31;5077773;28;19913;-72
2024/02/16 05:29:38;;;;;;;;;;;;;;;-144.99;100.00;52582.63;5081288;28;19923;-69
2024/02/16 05:32:06;;;;;;;;;;;;;;;-144.99;100.00;52603.00;5077487;28;19921;-70
2024/02/16 05:34:37;;;;;;;;;;;;;;;-144.99;100.00;52603.00;5085446;28;19966;-70
2024/02/16 05:37:04;;;;;;;;;;;;;;;-144.99;100.00;52623.38;5068196;28;19931;-70
2024/02/16 05:39:31;;;;;;;;;;;;;;;-144.99;100.00;52623.38;5062094;28;20229;-71
2024/02/16 05:41:58;;;;;;;;;;;;;;;-144.99;100.00;52603.00;5053217;28;20477;-71
2024/02/16 05:44:24;;;;;;;;;;;;;;;-144.99;100.00;52566.31;5058845;28;20007;-70
2024/02/16 05:46:50;;;;;;;;;;;;;;;-144.99;100.00;52590.78;5064097;28;20338;-68
2024/02/16 05:49:19;;;;;;;;;;;;;;;-144.99;100.00;52586.69;5059626;28;20469;-69
2024/02/16 05:52:17;;;;;;;;;;;;;;;-144.99;100.00;52621.34;5054477;28;20305;-69
2024/02/16 05:54:32;;;;;;;;;;;;;;;-144.99;100.00;52594.84;5054777;28;20315;-69
2024/02/16 05:56:59;;;;;;;;;;;;;;;-144.99;100.00;52603.00;5057258;28;20015;-69
2024/02/16 05:59:26;;;;;;;;;;;;;;;-144.99;100.00;52590.78;5055117;28;20448;-70
2024/02/16 06:01:53;;;;;;;;;;;;;;;-144.99;100.00;52594.84;5060338;28;19928;-69
2024/02/16 06:04:21;;;;;;;;;;;;;;;-144.99;100.00;52600.97;5058513;28;20435;-69
2024/02/16 06:06:47;;;;;;;;;;;;;;;-144.99;100.00;52584.66;5048983;28;19982;-70
2024/02/16 06:09:13;;;;;;;;;;;;;;;-144.99;100.00;52529.63;5060422;28;20050;-70
2024/02/16 06:11:40;;;;;;;;;;;;;;;-144.99;100.00;52574.47;5052882;28;20607;-70
2024/02/16 06:14:06;;;;;;;;;;;;;;;-144.99;100.00;52623.38;5054009;28;20024;-73
2024/02/16 06:16:33;;;;;;;;;;;;;;;-144.99;100.00;52607.09;5055407;28;19971;-72
2024/02/16 06:19:00;;;;;;;;;;;;;;;-144.99;100.00;52578.53;5052158;28;19955;-72
2024/02/16 06:21:28;;;;;;;;;;;;;;;-144.99;100.00;52586.69;5061044;28;19936;-72
2024/02/16 06:23:54;;;;;;;;;;;;;;;-144.99;100.00;52574.47;5057406;28;20023;-72
2024/02/16 06:26:20;;;;;;;;;;;;;;;-144.99;100.00;52598.94;5052495;28;20392;-72
2024/02/16 06:28:47;;;;;;;;;;;;;;;-144.99;100.00;52594.84;5056075;28;20015;-71
2024/02/16 06:31:14;;;;;;;;;;;;;;;-144.99;100.00;52613.19;4708180;28;10000358;-72
2024/02/16 06:33:40;;;;;;;;;;;;;;;-144.99;100.00;52623.38;5056777;28;19935;-72
2024/02/16 06:36:09;;;;;;;;;;;;;;;-144.99;100.00;52582.63;5056678;28;20043;-71
2024/02/16 06:38:37;;;;;;;;;;;;;;;-144.99;100.00;52586.69;5051549;28;19928;-72
2024/02/16 06:41:04;;;;;;;;;;;;;;;-144.99;100.00;52647.84;5056213;28;20053;-71
2024/02/16 06:43:30;;;;;;;;;;;;;;;-144.99;100.00;52621.34;5057301;28;19947;-72
2024/02/16 06:45:57;;;;;;;;;;;;;;;-144.99;100.00;52586.69;5050808;28;19960;-73
2024/02/16 06:48:23;;;;;;;;;;;;;;;-144.99;100.00;52609.13;5045643;28;19975;-72
2024/02/16 06:50:49;;;;;;;;;;;;;;;-144.99;100.00;52613.19;5069275;22;19933;-70
2024/02/16 06:53:16;;;;;;;;;;;;;;;-144.99;100.00;52605.03;5059526;28;19968;-68
2024/02/16 06:55:44;;;;;;;;;;;;;;;-144.99;100.00;52562.25;5062970;28;20055;-69
2024/02/16 06:58:10;;;;;;;;;;;;;;;-144.99;100.00;52596.88;5063436;28;19932;-69
2024/02/16 07:00:37;;;;;;;;;;;;;;;-144.99;100.00;52631.53;5060086;28;19932;-68
2024/02/16 07:03:03;;;;;;;;;;;;;;;-144.99;100.00;52619.31;5043920;28;20020;-68
2024/02/16 07:05:31;;;;;;;;;;;;;;;-144.99;100.00;52592.81;5043347;28;20015;-68
2024/02/16 07:07:58;;;;;;;;;;;;;;;-144.99;100.00;52615.25;5044532;28;20044;-68
2024/02/16 07:10:25;;;;;;;;;;;;;;;-144.99;100.00;52611.16;5042889;28;20024;-68
2024/02/16 07:12:52;;;;;;;;;;;;;;;-144.99;100.00;52607.09;5043353;28;19925;-69
2024/02/16 07:15:19;;;;;;;;;;;;;;;-144.99;100.00;52594.84;5044106;28;19952;-69
2024/02/16 07:17:45;;;;;;;;;;;;;;;-144.99;100.00;52623.38;5044492;28;20015;-69
2024/02/16 07:20:15;;;;;;;;;;;;;;;-144.99;100.00;52603.00;5044009;28;20008;-69
2024/02/16 07:22:41;;;;;;;;;;;;;;;-144.99;100.00;52598.94;5042203;28;20023;-69
2024/02/16 07:25:10;;;;;;;;;;;;;;;-144.99;100.00;52615.25;5044099;28;19972;-69
2024/02/16 07:27:36;;;;;;;;;;;;;;;-144.99;100.00;52592.81;5044245;28;19936;-69
2024/02/16 07:30:04;;;;;;;;;;;;;;;-144.99;100.00;52615.25;5043914;28;20044;-69
2024/02/16 07:32:31;;;;;;;;;;;;;;;-144.99;100.00;52562.25;5040621;28;20080;-69
2024/02/16 07:34:57;;;;;;;;;;;;;;;-144.99;100.00;52598.94;5043872;28;20349;-69
2024/02/16 07:37:24;;;;;;;;;;;;;;;-144.99;100.00;52590.78;5044030;28;20131;-69
2024/02/16 07:39:51;;;;;;;;;;;;;;;-144.99;100.00;52615.25;5043362;28;20047;-69
2024/02/16 07:42:17;;;;;;;;;;;;;;;-144.99;100.00;52578.53;5042154;28;20363;-69
2024/02/16 07:44:44;;;;;;;;;;;;;;;-144.99;100.00;52623.38;5044158;28;20027;-69
2024/02/16 07:47:12;;;;;;;;;;;;;;;-144.99;100.00;52611.16;5041930;28;19994;-69
2024/02/16 07:49:38;;;;;;;;;;;;;;;-144.99;100.00;52574.47;4341764;28;10000705;-69
2024/02/16 07:52:05;;;;;;;;;;;;;;;-144.99;100.00;52582.63;5043653;28;19984;-69
2024/02/16 07:54:31;;;;;;;;;;;;;;;-144.99;100.00;52558.16;5042340;28;20016;-68
2024/02/16 07:56:59;;;;;;;;;;;;;;;-144.99;100.00;52562.25;5041604;28;19979;-69
2024/02/16 07:59:25;;;;;;;;;;;;;;;-144.99;100.00;52623.38;5047673;28;20046;-69
2024/02/16 08:01:52;;;;;;;;;;;;;;;-144.99;100.00;52554.09;5048271;28;20168;-69
2024/02/16 08:04:20;;;;;;;;;;;;;;;-144.99;100.00;52586.69;5047502;28;20316;-68
2024/02/16 08:06:46;;;;;;;;;;;;;;;-144.99;100.00;52578.53;5043769;28;19925;-68
2024/02/16 08:09:14;;;;;;;;;;;;;;;-144.99;100.00;52554.09;5047893;28;20019;-68
2024/02/16 08:11:40;;;;;;;;;;;;;;;-144.99;100.00;52627.47;5044811;28;19929;-68
2024/02/16 08:14:08;;;;;;;;;;;;;;;-144.99;100.00;52582.63;5047691;28;19929;-69
2024/02/16 08:16:34;;;;;;;;;;;;;;;-144.99;100.00;52613.19;5044606;28;19955;-68
2024/02/16 08:19:01;;;;;;;;;;;;;;;-144.99;100.00;52615.25;5047467;28;19972;-68
2024/02/16 08:21:28;;;;;;;;;;;;;;;-144.99;100.00;52623.38;5047293;28;20440;-68
2024/02/16 08:23:55;;;;;;;;;;;;;;;-144.99;100.00;52574.47;5047429;28;20167;-68
2024/02/16 08:26:21;;;;;;;;;;;;;;;-144.99;100.00;52566.31;5044598;28;19972;-68
2024/02/16 08:28:48;;;;;;;;;;;;;;;-144.99;100.00;52594.84;5047484;28;19935;-68
2024/02/16 08:31:17;;;;;;;;;;;;;;;-144.99;100.00;52578.53;5047775;28;20029;-68
2024/02/16 08:33:44;;;;;;;;;;;;;;;-144.99;100.00;52566.31;5047079;28;19925;-68
2024/02/16 08:36:10;;;;;;;;;;;;;;;-144.99;100.00;52550.00;5046482;28;19929;-68
2024/02/16 08:38:38;;;;;;;;;;;;;;;-144.99;100.00;52611.16;5046535;28;20016;-68
2024/02/16 08:41:05;;;;;;;;;;;;;;;-144.99;100.00;52576.50;5043459;28;20291;-68
2024/02/16 08:43:32;;;;;;;;;;;;;;;-144.99;100.00;52590.78;5047548;28;20067;-68
2024/02/16 08:45:58;;;;;;;;;;;;;;;-144.99;100.00;52590.78;5047234;28;20086;-68
2024/02/16 08:48:25;;;;;;;;;;;;;;;-144.99;100.00;52578.53;5042641;28;20389;-68
2024/02/16 08:50:51;;;;;;;;;;;;;;;-144.99;100.00;52584.66;5047136;28;20394;-68
2024/02/16 08:53:18;;;;;;;;;;;;;;;-144.99;100.00;52574.47;5047187;28;19929;-69
2024/02/16 08:55:45;;;;;;;;;;;;;;;-144.99;100.00;52588.75;5044457;28;19964;-69
2024/02/16 08:58:12;;;;;;;;;;;;;;;-144.99;100.00;52594.84;5046925;28;19932;-67
2024/02/16 09:00:39;;;;;;;;;;;;;;;-144.99;100.00;52576.50;5046063;28;19994;-69
2024/02/16 09:03:08;;;;;;;;;;;;;;;-144.99;100.00;52590.78;5046448;28;20329;-67
2024/02/16 09:05:35;;;;;;;;;;;;;;;-144.99;100.00;52603.00;5045013;28;19933;-68
2024/02/16 09:08:02;;;;;;;;;;;;;;;-144.99;100.00;52611.16;5046094;28;19960;-68
2024/02/16 09:10:28;;;;;;;;;;;;;;;-144.99;100.00;52566.31;5044580;28;20011;-69
2024/02/16 09:12:56;;;;;;;;;;;;;;;-144.99;100.00;52607.09;5047011;28;19952;-69
2024/02/16 09:15:22;;;;;;;;;;;;;;;-144.99;100.00;52635.63;5046997;28;20387;-69
2024/02/16 09:17:49;;;;;;;;;;;;;;;-144.99;100.00;52574.47;5046914;28;20026;-69
2024/02/16 09:20:15;;;;;;;;;;;;;;;-144.99;100.00;52603.00;5045139;28;19924;-68
2024/02/16 09:22:42;;;;;;;;;;;;;;;-144.99;100.00;52615.25;5045383;28;19928;-67
2024/02/16 09:25:09;;;;;;;;;;;;;;;-144.99;100.00;52617.28;5046745;28;20297;-67
2024/02/16 09:27:40;;;;;;;;;;;;;;;-144.99;100.00;52578.53;5045553;28;20265;-67
2024/02/16 09:30:10;;;;;;;;;;;;;;;-144.99;100.00;52529.63;5045659;28;20012;-67
2024/02/16 09:32:37;;;;;;;;;;;;;;;-144.99;100.00;52566.31;5043336;28;19935;-68
2024/02/16 09:35:03;;;;;;;;;;;;;;;-144.99;100.00;52562.25;5046363;28;19928;-68
2024/02/16 09:37:30;;;;;;;;;;;;;;;-144.99;99.62;52582.63;5046487;28;20082;-68
2024/02/16 09:39:56;;;;;;;;;;;;;;;-144.99;100.00;52562.25;5046270;28;20055;-68
2024/02/16 09:42:25;;;;;;;;;;;;;;;-144.99;99.60;52558.16;5043214;28;20059;-68
2024/02/16 09:44:53;;;;;;;;;;;;;;;-144.99;99.15;52570.38;5041954;28;19928;-68
2024/02/16 09:47:21;;;;;;;;;;;;;;;-144.99;98.99;52574.47;5045678;28;19980;-68
2024/02/16 09:49:48;;;;;;;;;;;;;;;-144.99;99.67;52574.47;5046003;28;20025;-68
2024/02/16 09:52:15;;;;;;;;;;;;;;;-144.99;99.45;52598.94;5039533;28;20020;-68
2024/02/16 09:54:41;;;;;;;;;;;;;;;-144.99;99.08;52570.38;5044319;28;20440;-68
2024/02/16 09:57:08;;;;;;;;;;;;;;;-144.99;99.57;52558.16;5046883;28;20493;-68
2024/02/16 09:59:35;;;;;;;;;;;;;;;-144.99;99.39;52558.16;5027832;28;19961;-68
2024/02/16 10:02:02;;;;;;;;;;;;;;;-144.99;99.24;52562.25;5044134;28;20380;-68
2024/02/16 10:04:30;;;;;;;;;;;;;;;-144.99;98.79;52582.63;5042115;28;19963;-68
2024/02/16 10:06:57;;;;;;;;;;;;;;;-144.99;98.71;52545.94;5045577;28;19978;-68
2024/02/16 10:09:24;;;;;;;;;;;;;;;-144.99;98.18;52611.16;5046305;28;20023;-68
2024/02/16 10:11:51;;;;;;;;;;;;;;;-144.99;98.50;52623.38;5046191;28;20025;-68
2024/02/16 10:14:19;;;;;;;;;;;;;;;-144.99;98.44;52590.78;5041741;28;19946;-68
2024/02/16 10:16:45;;;;;;;;;;;;;;;-144.99;98.28;52613.19;5038193;28;19929;-68
2024/02/16 10:19:12;;;;;;;;;;;;;;;-144.99;98.56;52562.25;5044590;28;19932;-68
2024/02/16 10:21:40;;;;;;;;;;;;;;;-144.99;98.55;52570.38;5044684;28;19940;-67
2024/02/16 10:24:08;;;;;;;;;;;;;;;-144.99;97.92;52570.38;5044825;28;20006;-67
2024/02/16 10:26:37;;;;;;;;;;;;;;;-144.99;98.37;52572.44;5041888;28;19925;-68
2024/02/16 10:29:04;;;;;;;;;;;;;;;-144.99;98.23;52566.31;5040926;28;20020;-67
2024/02/16 10:31:31;;;;;;;;;;;;;;;-144.99;98.02;52578.53;5045147;28;20347;-67
2024/02/16 10:33:58;;;;;;;;;;;;;;;-144.99;98.84;52574.47;5043229;28;20020;-67
2024/02/16 10:36:25;;;;;;;;;;;;;;;-144.99;98.24;52582.63;5044364;28;20501;-67
2024/02/16 10:38:54;;;;;;;;;;;;;;;-144.99;98.84;52592.81;5045368;28;20366;-67
2024/02/16 10:41:22;;;;;;;;;;;;;;;-144.99;98.75;52578.53;5027448;28;20011;-68
2024/02/16 10:43:49;;;;;;;;;;;;;;;-144.99;97.81;52562.25;5044588;28;20031;-68
2024/02/16 10:46:17;;;;;;;;;;;;;;;-144.99;98.03;52541.84;5042323;28;19931;-68
2024/02/16 10:48:43;;;;;;;;;;;;;;;-144.99;97.34;52566.31;5044818;28;19935;-68
2024/02/16 10:51:10;;;;;;;;;;;;;;;-144.99;97.12;52545.94;5044954;28;20012;-68
2024/02/16 10:53:38;;;;;;;;;;;;;;;-144.99;96.31;52505.16;5044534;28;19933;-68
2024/02/16 10:56:08;;;;;;;;;;;;;;;-144.99;95.63;52513.31;5042229;28;19994;-68
2024/02/16 10:58:34;;;;;;;;;;;;;;;-144.99;95.95;52519.44;5044429;28;20146;-68
2024/02/16 11:01:08;;;;;;;;;;;;;;;-144.99;95.02;52533.69;5043946;28;19969;-69
2024/02/16 11:03:38;;;;;;;;;;;;;;;-144.99;95.37;52570.38;5044420;28;19929;-68
2024/02/16 11:06:12;;;;;;;;;;;;;;;-144.99;95.02;52570.38;5042971;28;20383;-68
2024/02/16 11:08:39;;;;;;;;;;;;;;;-144.99;94.51;52619.31;5044074;28;19965;-68
2024/02/16 11:11:09;;;;;;;;;;;;;;;-144.99;94.32;52525.56;5044992;28;20326;-67
2024/02/16 11:13:37;;;;;;;;;;;;;;;-144.99;94.51;52550.00;5043779;28;19994;-67
2024/02/16 11:16:04;;;;;;;;;;;;;;;-144.99;93.50;52537.78;5042178;28;19932;-67
2024/02/16 11:18:31;;;;;;;;;;;;;;;-144.99;92.82;52533.69;5042118;28;19932;-67
2024/02/16 11:21:01;;;;;;;;;;;;;;;-144.99;91.72;52554.09;5040502;28;19940;-67
2024/02/16 11:23:29;;;;;;;;;;;;;;;-144.99;91.15;52578.53;5044335;28;19933;-67
2024/02/16 11:25:55;;;;;;;;;;;;;;;-144.99;90.94;52523.50;5041134;28;20344;-68
2024/02/16 11:28:24;;;;;;;;;;;;;;;-144.99;91.42;52552.03;5043860;28;20349;-69
2024/02/16 11:30:51;;;;;;;;;;;;;;;-144.99;92.12;52537.78;5044352;28;19951;-68
2024/02/16 11:33:19;;;;;;;;;;;;;;;-144.99;92.12;52545.94;5043650;28;20360;-68
2024/02/16 11:35:53;;;;;;;;;;;;;;;-144.99;92.68;52607.09;5042891;28;20414;-68
2024/02/16 11:38:19;;;;;;;;;;;;;;;-144.99;92.29;52578.53;5041172;28;20019;-68
2024/02/16 11:40:53;;;;;;;;;;;;;;;-144.99;92.90;52515.34;5042243;28;20161;-68
2024/02/16 11:43:21;;;;;;;;;;;;;;;-144.99;92.31;52529.63;5040660;28;20279;-68
2024/02/16 11:45:48;;;;;;;;;;;;;;;-144.99;92.44;52545.94;5042091;28;20019;-68
2024/02/16 11:48:19;;;;;;;;;;;;;;;-144.99;91.81;52537.78;5043530;28;20053;-68
2024/02/16 11:50:47;;;;;;;;;;;;;;;-144.99;89.61;52476.63;5039625;28;19940;-68
2024/02/16 11:53:16;;;;;;;;;;;;;;;-144.99;87.12;52480.72;5043891;28;19932;-70
2024/02/16 11:55:47;;;;;;;;;;;;;;;-144.99;85.26;52486.81;5044321;28;19978;-69
2024/02/16 11:58:13;;;;;;;;;;;;;;;-144.99;85.03;52521.47;5042396;28;19935;-69
2024/02/16 12:00:40;;;;;;;;;;;;;;;-144.99;85.19;52492.94;5042806;28;19937;-69
2024/02/16 12:03:08;;;;;;;;;;;;;;;-144.99;85.35;52501.09;5043308;28;20004;-69
2024/02/16 12:05:35;;;;;;;;;;;;;;;-144.99;85.71;52484.78;5043934;28;19952;-69
2024/02/16 12:08:01;;;;;;;;;;;;;;;-144.99;85.10;52513.31;5042556;28;20378;-69
2024/02/16 12:10:29;;;;;;;;;;;;;;;-144.99;84.81;52539.81;5019449;28;20421;-69
2024/02/16 12:12:56;;;;;;;;;;;;;;;-144.99;84.40;52505.16;5039640;28;20374;-69
2024/02/16 12:15:22;;;;;;;;;;;;;;;-144.99;85.09;52488.84;5043882;28;19968;-69
2024/02/16 12:17:58;;;;;;;;;;;;;;;-144.99;84.68;52545.94;5042978;28;19933;-68